sensor_id;sensor_type;location;lat;lon;timestamp;temperature;humidity
19920;DHT22;10122;50.074;19.920;2023-02-01T00:02:00;3.80;99.90
19920;DHT22;10122;50.074;19.920;2023-02-01T00:04:27;3.80;99.90
19920;DHT22;10122;50.074;19.920;2023-02-01T00:06:52;3.80;99.90
19920;DHT22;10122;50.074;19.920;2023-02-01T00:09:18;3.70;99.90
19920;DHT22;10122;50.074;19.920;2023-02-01T00:11:44;3.80;99.90
19920;DHT22;10122;50.074;19.920;2023-02-01T00:14:10;3.80;99.90
19920;DHT22;10122;50.074;19.920;2023-02-01T00:16:36;3.80;99.90
19920;DHT22;10122;50.074;19.920;2023-02-01T00:19:11;3.80;99.90
19920;DHT22;10122;50.074;19.920;2023-02-01T00:21:37;3.80;99.90
19920;DHT22;10122;50.074;19.920;2023-02-01T00:24:03;3.80;99.90
19920;DHT22;10122;50.074;19.920;2023-02-01T00:26:36;3.80;99.90
19920;DHT22;10122;50.074;19.920;2023-02-01T00:29:05;3.80;99.90
19920;DHT22;10122;50.074;19.920;2023-02-01T00:31:31;3.80;99.90
19920;DHT22;10122;50.074;19.920;2023-02-01T00:33:57;3.70;99.90
19920;DHT22;10122;50.074;19.920;2023-02-01T00:36:22;3.80;99.90
19920;DHT22;10122;50.074;19.920;2023-02-01T00:38:48;3.80;99.90
19920;DHT22;10122;50.074;19.920;2023-02-01T00:41:16;3.70;99.90
19920;DHT22;10122;50.074;19.920;2023-02-01T00:43:43;3.80;99.90
19920;DHT22;10122;50.074;19.920;2023-02-01T00:46:12;3.80;99.90
19920;DHT22;10122;50.074;19.920;2023-02-01T00:48:39;3.80;99.90
19920;DHT22;10122;50.074;19.920;2023-02-01T00:51:08;3.80;99.90
19920;DHT22;10122;50.074;19.920;2023-02-01T00:53:34;3.80;99.90
19920;DHT22;10122;50.074;19.920;2023-02-01T00:56:00;3.80;99.90
19920;DHT22;10122;50.074;19.920;2023-02-01T00:58:26;3.80;99.90
19920;DHT22;10122;50.074;19.920;2023-02-01T01:03:28;3.80;99.90
19920;DHT22;10122;50.074;19.920;2023-02-01T01:05:57;3.70;99.90
19920;DHT22;10122;50.074;19.920;2023-02-01T01:08:23;3.70;99.90
19920;DHT22;10122;50.074;19.920;2023-02-01T01:10:48;3.70;99.90
19920;DHT22;10122;50.074;19.920;2023-02-01T01:13:15;3.70;99.90
19920;DHT22;10122;50.074;19.920;2023-02-01T01:15:41;3.70;99.90
19920;DHT22;10122;50.074;19.920;2023-02-01T01:18:07;3.70;99.90
19920;DHT22;10122;50.074;19.920;2023-02-01T01:20:35;3.60;99.90
19920;DHT22;10122;50.074;19.920;2023-02-01T01:23:01;3.70;99.90
19920;DHT22;10122;50.074;19.920;2023-02-01T01:25:28;3.70;99.90
19920;DHT22;10122;50.074;19.920;2023-02-01T01:27:53;3.70;99.90
19920;DHT22;10122;50.074;19.920;2023-02-01T01:30:19;3.70;99.90
19920;DHT22;10122;50.074;19.920;2023-02-01T01:32:45;3.70;99.90
19920;DHT22;10122;50.074;19.920;2023-02-01T01:35:11;3.70;99.90
19920;DHT22;10122;50.074;19.920;2023-02-01T01:37:37;3.80;99.90
19920;DHT22;10122;50.074;19.920;2023-02-01T01:40:04;3.80;99.90
19920;DHT22;10122;50.074;19.920;2023-02-01T01:42:30;3.80;99.90
19920;DHT22;10122;50.074;19.920;2023-02-01T01:44:59;3.80;99.90
19920;DHT22;10122;50.074;19.920;2023-02-01T01:47:26;3.80;99.90
19920;DHT22;10122;50.074;19.920;2023-02-01T01:49:54;3.70;99.90
19920;DHT22;10122;50.074;19.920;2023-02-01T01:52:20;3.60;99.90
19920;DHT22;10122;50.074;19.920;2023-02-01T01:54:50;3.50;99.90
19920;DHT22;10122;50.074;19.920;2023-02-01T01:57:24;3.50;99.90
19920;DHT22;10122;50.074;19.920;2023-02-01T02:00:00;3.40;99.90
19920;DHT22;10122;50.074;19.920;2023-02-01T02:02:27;3.40;99.90
19920;DHT22;10122;50.074;19.920;2023-02-01T02:04:53;3.40;99.90
19920;DHT22;10122;50.074;19.920;2023-02-01T02:07:31;3.40;99.90
19920;DHT22;10122;50.074;19.920;2023-02-01T02:09:59;3.30;99.90
19920;DHT22;10122;50.074;19.920;2023-02-01T02:12:25;3.30;99.90
19920;DHT22;10122;50.074;19.920;2023-02-01T02:14:51;3.30;99.90
19920;DHT22;10122;50.074;19.920;2023-02-01T02:20:33;3.30;99.90
19920;DHT22;10122;50.074;19.920;2023-02-01T02:25:54;3.40;99.90
19920;DHT22;10122;50.074;19.920;2023-02-01T02:34:54;3.40;99.90
19920;DHT22;10122;50.074;19.920;2023-02-01T02:42:57;3.40;99.90
19920;DHT22;10122;50.074;19.920;2023-02-01T02:45:48;3.40;99.90
19920;DHT22;10122;50.074;19.920;2023-02-01T02:51:13;3.40;99.90
19920;DHT22;10122;50.074;19.920;2023-02-01T02:54:10;3.40;99.90
19920;DHT22;10122;50.074;19.920;2023-02-01T02:56:57;3.40;99.90
19920;DHT22;10122;50.074;19.920;2023-02-01T02:59:43;3.40;99.90
19920;DHT22;10122;50.074;19.920;2023-02-01T03:02:29;3.40;99.90
19920;DHT22;10122;50.074;19.920;2023-02-01T03:05:14;3.40;99.90
19920;DHT22;10122;50.074;19.920;2023-02-01T03:13:13;3.40;99.90
19920;DHT22;10122;50.074;19.920;2023-02-01T03:15:56;3.40;99.90
19920;DHT22;10122;50.074;19.920;2023-02-01T03:18:32;3.40;99.90
19920;DHT22;10122;50.074;19.920;2023-02-01T03:21:01;3.40;99.90
19920;DHT22;10122;50.074;19.920;2023-02-01T03:23:31;3.40;99.90
19920;DHT22;10122;50.074;19.920;2023-02-01T03:25:59;3.40;99.90
19920;DHT22;10122;50.074;19.920;2023-02-01T03:28:28;3.40;99.90
19920;DHT22;10122;50.074;19.920;2023-02-01T03:30:55;3.40;99.90
19920;DHT22;10122;50.074;19.920;2023-02-01T03:33:23;3.40;99.90
19920;DHT22;10122;50.074;19.920;2023-02-01T03:41:28;3.40;99.90
19920;DHT22;10122;50.074;19.920;2023-02-01T03:49:22;3.40;99.90
19920;DHT22;10122;50.074;19.920;2023-02-01T03:51:50;3.40;99.90
19920;DHT22;10122;50.074;19.920;2023-02-01T03:54:17;3.50;99.90
19920;DHT22;10122;50.074;19.920;2023-02-01T03:56:46;3.50;99.90
19920;DHT22;10122;50.074;19.920;2023-02-01T03:59:13;3.50;99.90
19920;DHT22;10122;50.074;19.920;2023-02-01T04:01:39;3.50;99.90
19920;DHT22;10122;50.074;19.920;2023-02-01T04:04:06;3.50;99.90
19920;DHT22;10122;50.074;19.920;2023-02-01T04:06:32;3.50;99.90
19920;DHT22;10122;50.074;19.920;2023-02-01T04:08:58;3.50;99.90
19920;DHT22;10122;50.074;19.920;2023-02-01T04:11:23;3.50;99.90
19920;DHT22;10122;50.074;19.920;2023-02-01T04:13:49;3.50;99.90
19920;DHT22;10122;50.074;19.920;2023-02-01T04:16:15;3.50;99.90
19920;DHT22;10122;50.074;19.920;2023-02-01T04:18:40;3.50;99.90
19920;DHT22;10122;50.074;19.920;2023-02-01T04:21:06;3.50;99.90
19920;DHT22;10122;50.074;19.920;2023-02-01T04:23:32;3.50;99.90
19920;DHT22;10122;50.074;19.920;2023-02-01T04:26:02;3.50;99.90
19920;DHT22;10122;50.074;19.920;2023-02-01T04:28:28;3.50;99.90
19920;DHT22;10122;50.074;19.920;2023-02-01T04:30:54;3.50;99.90
19920;DHT22;10122;50.074;19.920;2023-02-01T04:33:20;3.50;99.90
19920;DHT22;10122;50.074;19.920;2023-02-01T04:35:45;3.50;99.90
19920;DHT22;10122;50.074;19.920;2023-02-01T04:38:12;3.50;99.90
19920;DHT22;10122;50.074;19.920;2023-02-01T04:40:38;3.50;99.90
19920;DHT22;10122;50.074;19.920;2023-02-01T04:43:04;3.50;99.90
19920;DHT22;10122;50.074;19.920;2023-02-01T04:45:30;3.50;99.90
19920;DHT22;10122;50.074;19.920;2023-02-01T04:47:56;3.50;99.90
19920;DHT22;10122;50.074;19.920;2023-02-01T04:50:22;3.50;99.90
19920;DHT22;10122;50.074;19.920;2023-02-01T04:52:49;3.50;99.90
19920;DHT22;10122;50.074;19.920;2023-02-01T04:55:14;3.40;99.90
19920;DHT22;10122;50.074;19.920;2023-02-01T04:57:41;3.40;99.90
19920;DHT22;10122;50.074;19.920;2023-02-01T05:00:08;3.40;99.90
19920;DHT22;10122;50.074;19.920;2023-02-01T05:02:34;3.40;99.90
19920;DHT22;10122;50.074;19.920;2023-02-01T05:05:01;3.40;99.90
19920;DHT22;10122;50.074;19.920;2023-02-01T05:07:27;3.40;99.90
19920;DHT22;10122;50.074;19.920;2023-02-01T05:09:52;3.40;99.90
19920;DHT22;10122;50.074;19.920;2023-02-01T05:12:18;3.40;99.90
19920;DHT22;10122;50.074;19.920;2023-02-01T05:15:02;3.50;99.90
19920;DHT22;10122;50.074;19.920;2023-02-01T05:17:28;3.50;99.90
19920;DHT22;10122;50.074;19.920;2023-02-01T05:19:54;3.50;99.90
19920;DHT22;10122;50.074;19.920;2023-02-01T05:22:20;3.50;99.90
19920;DHT22;10122;50.074;19.920;2023-02-01T05:24:45;3.50;99.90
19920;DHT22;10122;50.074;19.920;2023-02-01T05:27:11;3.50;99.90
19920;DHT22;10122;50.074;19.920;2023-02-01T05:29:37;3.60;99.90
19920;DHT22;10122;50.074;19.920;2023-02-01T05:32:03;3.60;99.90
19920;DHT22;10122;50.074;19.920;2023-02-01T05:34:28;3.60;99.90
19920;DHT22;10122;50.074;19.920;2023-02-01T05:36:54;3.60;99.90
19920;DHT22;10122;50.074;19.920;2023-02-01T05:39:20;3.60;99.90
19920;DHT22;10122;50.074;19.920;2023-02-01T05:41:45;3.50;99.90
19920;DHT22;10122;50.074;19.920;2023-02-01T05:44:11;3.50;99.90
19920;DHT22;10122;50.074;19.920;2023-02-01T05:46:37;3.50;99.90
19920;DHT22;10122;50.074;19.920;2023-02-01T05:49:04;3.50;99.90
19920;DHT22;10122;50.074;19.920;2023-02-01T05:51:29;3.50;99.90
19920;DHT22;10122;50.074;19.920;2023-02-01T05:53:55;3.50;99.90
19920;DHT22;10122;50.074;19.920;2023-02-01T05:56:21;3.50;99.90
19920;DHT22;10122;50.074;19.920;2023-02-01T05:58:47;3.50;99.90
19920;DHT22;10122;50.074;19.920;2023-02-01T06:01:12;3.50;99.90
19920;DHT22;10122;50.074;19.920;2023-02-01T06:03:38;3.50;99.90
19920;DHT22;10122;50.074;19.920;2023-02-01T06:06:04;3.50;99.90
19920;DHT22;10122;50.074;19.920;2023-02-01T06:08:30;3.50;99.90
19920;DHT22;10122;50.074;19.920;2023-02-01T06:11:13;3.40;99.90
19920;DHT22;10122;50.074;19.920;2023-02-01T06:13:39;3.40;99.90
19920;DHT22;10122;50.074;19.920;2023-02-01T06:16:05;3.40;99.90
19920;DHT22;10122;50.074;19.920;2023-02-01T06:18:33;3.40;99.90
19920;DHT22;10122;50.074;19.920;2023-02-01T06:21:00;3.40;99.90
19920;DHT22;10122;50.074;19.920;2023-02-01T06:23:26;3.40;99.90
19920;DHT22;10122;50.074;19.920;2023-02-01T06:26:04;3.30;99.90
19920;DHT22;10122;50.074;19.920;2023-02-01T06:28:31;3.40;99.90
19920;DHT22;10122;50.074;19.920;2023-02-01T06:30:57;3.40;99.90
19920;DHT22;10122;50.074;19.920;2023-02-01T06:33:24;3.40;99.90
19920;DHT22;10122;50.074;19.920;2023-02-01T06:36:00;3.40;99.90
19920;DHT22;10122;50.074;19.920;2023-02-01T06:38:26;3.40;99.90
19920;DHT22;10122;50.074;19.920;2023-02-01T06:40:53;3.40;99.90
19920;DHT22;10122;50.074;19.920;2023-02-01T06:43:20;3.40;99.90
19920;DHT22;10122;50.074;19.920;2023-02-01T06:45:46;3.50;99.90
19920;DHT22;10122;50.074;19.920;2023-02-01T06:48:12;3.50;99.90
19920;DHT22;10122;50.074;19.920;2023-02-01T06:50:38;3.50;99.90
19920;DHT22;10122;50.074;19.920;2023-02-01T06:53:03;3.50;99.90
19920;DHT22;10122;50.074;19.920;2023-02-01T06:55:29;3.60;99.90
19920;DHT22;10122;50.074;19.920;2023-02-01T06:57:55;3.60;99.90
19920;DHT22;10122;50.074;19.920;2023-02-01T07:00:22;3.60;99.90
19920;DHT22;10122;50.074;19.920;2023-02-01T07:02:48;3.60;99.90
19920;DHT22;10122;50.074;19.920;2023-02-01T07:05:14;3.60;99.90
19920;DHT22;10122;50.074;19.920;2023-02-01T07:07:40;3.70;99.90
19920;DHT22;10122;50.074;19.920;2023-02-01T07:10:06;3.70;99.90
19920;DHT22;10122;50.074;19.920;2023-02-01T07:12:32;3.70;99.90
19920;DHT22;10122;50.074;19.920;2023-02-01T07:14:57;3.80;99.90
19920;DHT22;10122;50.074;19.920;2023-02-01T07:17:23;3.70;99.90
19920;DHT22;10122;50.074;19.920;2023-02-01T07:19:49;3.70;99.90
19920;DHT22;10122;50.074;19.920;2023-02-01T07:22:18;3.80;99.90
19920;DHT22;10122;50.074;19.920;2023-02-01T07:24:43;3.80;99.90
19920;DHT22;10122;50.074;19.920;2023-02-01T07:27:09;3.80;99.90
19920;DHT22;10122;50.074;19.920;2023-02-01T07:29:35;3.80;99.90
19920;DHT22;10122;50.074;19.920;2023-02-01T07:32:01;3.90;99.90
19920;DHT22;10122;50.074;19.920;2023-02-01T07:34:28;3.90;99.90
19920;DHT22;10122;50.074;19.920;2023-02-01T07:36:54;3.90;99.90
19920;DHT22;10122;50.074;19.920;2023-02-01T07:39:19;3.90;99.90
19920;DHT22;10122;50.074;19.920;2023-02-01T07:41:46;4.00;99.90
19920;DHT22;10122;50.074;19.920;2023-02-01T07:44:11;4.00;99.90
19920;DHT22;10122;50.074;19.920;2023-02-01T07:46:37;4.00;99.90
19920;DHT22;10122;50.074;19.920;2023-02-01T07:49:04;4.10;99.90
19920;DHT22;10122;50.074;19.920;2023-02-01T07:51:30;4.10;99.90
19920;DHT22;10122;50.074;19.920;2023-02-01T07:53:56;4.10;99.90
19920;DHT22;10122;50.074;19.920;2023-02-01T07:56:22;4.10;99.90
19920;DHT22;10122;50.074;19.920;2023-02-01T07:58:53;4.20;99.90
19920;DHT22;10122;50.074;19.920;2023-02-01T08:01:24;4.20;99.90
19920;DHT22;10122;50.074;19.920;2023-02-01T08:03:53;4.20;99.90
19920;DHT22;10122;50.074;19.920;2023-02-01T08:06:20;4.20;99.90
19920;DHT22;10122;50.074;19.920;2023-02-01T08:08:46;4.20;99.90
19920;DHT22;10122;50.074;19.920;2023-02-01T08:11:13;4.30;99.90
19920;DHT22;10122;50.074;19.920;2023-02-01T08:13:39;4.30;99.90
19920;DHT22;10122;50.074;19.920;2023-02-01T08:16:07;4.30;99.90
19920;DHT22;10122;50.074;19.920;2023-02-01T08:18:34;4.30;99.90
19920;DHT22;10122;50.074;19.920;2023-02-01T08:21:14;4.30;99.90
19920;DHT22;10122;50.074;19.920;2023-02-01T08:23:41;4.30;99.90
19920;DHT22;10122;50.074;19.920;2023-02-01T08:26:18;4.30;99.90
19920;DHT22;10122;50.074;19.920;2023-02-01T08:28:48;4.40;99.90
19920;DHT22;10122;50.074;19.920;2023-02-01T08:31:17;4.40;99.90
19920;DHT22;10122;50.074;19.920;2023-02-01T08:33:44;4.40;99.90
19920;DHT22;10122;50.074;19.920;2023-02-01T08:36:13;4.40;99.90
19920;DHT22;10122;50.074;19.920;2023-02-01T08:38:39;4.50;99.90
19920;DHT22;10122;50.074;19.920;2023-02-01T08:41:14;4.50;99.90
19920;DHT22;10122;50.074;19.920;2023-02-01T08:43:40;4.50;99.90
19920;DHT22;10122;50.074;19.920;2023-02-01T08:46:07;4.50;99.90
19920;DHT22;10122;50.074;19.920;2023-02-01T08:48:33;4.50;99.90
19920;DHT22;10122;50.074;19.920;2023-02-01T08:51:05;4.50;99.90
19920;DHT22;10122;50.074;19.920;2023-02-01T08:53:31;4.50;99.90
19920;DHT22;10122;50.074;19.920;2023-02-01T08:55:57;4.50;99.90
19920;DHT22;10122;50.074;19.920;2023-02-01T08:58:22;4.60;99.90
19920;DHT22;10122;50.074;19.920;2023-02-01T09:00:49;4.60;99.90
19920;DHT22;10122;50.074;19.920;2023-02-01T09:03:15;4.70;99.90
19920;DHT22;10122;50.074;19.920;2023-02-01T09:05:41;4.70;99.90
19920;DHT22;10122;50.074;19.920;2023-02-01T09:08:07;4.70;99.90
19920;DHT22;10122;50.074;19.920;2023-02-01T09:10:34;4.80;99.90
19920;DHT22;10122;50.074;19.920;2023-02-01T09:13:01;4.90;99.90
19920;DHT22;10122;50.074;19.920;2023-02-01T09:15:26;4.90;99.90
19920;DHT22;10122;50.074;19.920;2023-02-01T09:17:52;4.90;99.90
19920;DHT22;10122;50.074;19.920;2023-02-01T09:20:18;4.90;99.90
19920;DHT22;10122;50.074;19.920;2023-02-01T09:22:45;5.00;99.90
19920;DHT22;10122;50.074;19.920;2023-02-01T09:25:11;5.00;99.90
19920;DHT22;10122;50.074;19.920;2023-02-01T09:27:36;5.10;99.90
19920;DHT22;10122;50.074;19.920;2023-02-01T09:30:03;5.20;99.90
19920;DHT22;10122;50.074;19.920;2023-02-01T09:32:30;5.40;99.90
19920;DHT22;10122;50.074;19.920;2023-02-01T09:34:56;5.60;99.90
19920;DHT22;10122;50.074;19.920;2023-02-01T09:37:22;5.80;99.90
19920;DHT22;10122;50.074;19.920;2023-02-01T09:39:47;6.00;99.90
19920;DHT22;10122;50.074;19.920;2023-02-01T09:47:46;6.50;99.90
19920;DHT22;10122;50.074;19.920;2023-02-01T09:50:20;6.40;99.90
19920;DHT22;10122;50.074;19.920;2023-02-01T09:53:01;6.40;99.90
19920;DHT22;10122;50.074;19.920;2023-02-01T09:58:02;6.30;99.90
19920;DHT22;10122;50.074;19.920;2023-02-01T10:00:33;6.20;99.90
19920;DHT22;10122;50.074;19.920;2023-02-01T10:03:00;6.20;99.90
19920;DHT22;10122;50.074;19.920;2023-02-01T10:11:17;6.30;99.90
19920;DHT22;10122;50.074;19.920;2023-02-01T10:14:03;6.40;99.90
19920;DHT22;10122;50.074;19.920;2023-02-01T10:19:51;6.60;99.90
19920;DHT22;10122;50.074;19.920;2023-02-01T10:22:46;6.70;99.90
19920;DHT22;10122;50.074;19.920;2023-02-01T10:25:32;6.70;99.90
19920;DHT22;10122;50.074;19.920;2023-02-01T10:28:01;6.70;99.90
19920;DHT22;10122;50.074;19.920;2023-02-01T10:30:41;6.70;99.90
19920;DHT22;10122;50.074;19.920;2023-02-01T10:33:22;6.70;99.90
19920;DHT22;10122;50.074;19.920;2023-02-01T10:36:03;6.70;99.90
19920;DHT22;10122;50.074;19.920;2023-02-01T10:38:33;6.60;99.90
19920;DHT22;10122;50.074;19.920;2023-02-01T10:41:08;6.60;99.90
19920;DHT22;10122;50.074;19.920;2023-02-01T10:43:36;6.50;99.90
19920;DHT22;10122;50.074;19.920;2023-02-01T10:46:04;6.50;99.90
19920;DHT22;10122;50.074;19.920;2023-02-01T10:48:31;6.70;99.90
19920;DHT22;10122;50.074;19.920;2023-02-01T10:51:10;7.40;99.90
19920;DHT22;10122;50.074;19.920;2023-02-01T10:53:45;7.50;99.90
19920;DHT22;10122;50.074;19.920;2023-02-01T10:56:13;7.30;99.90
19920;DHT22;10122;50.074;19.920;2023-02-01T10:58:46;7.20;99.90
19920;DHT22;10122;50.074;19.920;2023-02-01T11:01:19;7.00;99.90
19920;DHT22;10122;50.074;19.920;2023-02-01T11:03:52;6.90;99.90
19920;DHT22;10122;50.074;19.920;2023-02-01T11:06:31;6.70;99.90
19920;DHT22;10122;50.074;19.920;2023-02-01T11:08:59;6.60;99.90
19920;DHT22;10122;50.074;19.920;2023-02-01T11:11:26;6.50;99.90
19920;DHT22;10122;50.074;19.920;2023-02-01T11:14:00;6.50;99.90
19920;DHT22;10122;50.074;19.920;2023-02-01T11:16:35;6.40;99.90
19920;DHT22;10122;50.074;19.920;2023-02-01T11:19:01;6.30;99.90
19920;DHT22;10122;50.074;19.920;2023-02-01T11:21:27;6.20;99.90
19920;DHT22;10122;50.074;19.920;2023-02-01T11:23:53;6.10;99.90
19920;DHT22;10122;50.074;19.920;2023-02-01T11:26:26;6.10;99.90
19920;DHT22;10122;50.074;19.920;2023-02-01T11:29:14;6.10;99.90
19920;DHT22;10122;50.074;19.920;2023-02-01T11:31:44;6.00;99.90
19920;DHT22;10122;50.074;19.920;2023-02-01T11:34:20;6.00;99.90
19920;DHT22;10122;50.074;19.920;2023-02-01T11:36:48;6.00;99.90
19920;DHT22;10122;50.074;19.920;2023-02-01T11:44:42;6.00;99.90
19920;DHT22;10122;50.074;19.920;2023-02-01T11:47:22;6.10;99.90
19920;DHT22;10122;50.074;19.920;2023-02-01T11:49:50;6.20;99.90
19920;DHT22;10122;50.074;19.920;2023-02-01T12:00:52;6.30;99.90
19920;DHT22;10122;50.074;19.920;2023-02-01T12:06:53;6.20;99.90
19920;DHT22;10122;50.074;19.920;2023-02-01T12:12:26;6.10;99.90
19920;DHT22;10122;50.074;19.920;2023-02-01T12:18:02;6.10;99.90
19920;DHT22;10122;50.074;19.920;2023-02-01T12:26:06;6.20;99.90
19920;DHT22;10122;50.074;19.920;2023-02-01T12:29:07;6.30;99.90
19920;DHT22;10122;50.074;19.920;2023-02-01T12:40:41;6.50;99.90
19920;DHT22;10122;50.074;19.920;2023-02-01T12:46:06;6.50;99.90
19920;DHT22;10122;50.074;19.920;2023-02-01T12:48:39;6.50;99.90
19920;DHT22;10122;50.074;19.920;2023-02-01T12:51:16;6.50;99.90
19920;DHT22;10122;50.074;19.920;2023-02-01T12:53:47;6.60;99.90
19920;DHT22;10122;50.074;19.920;2023-02-01T12:59:05;6.60;99.90
19920;DHT22;10122;50.074;19.920;2023-02-01T13:04:42;6.50;99.90
19920;DHT22;10122;50.074;19.920;2023-02-01T13:07:17;6.50;99.90
19920;DHT22;10122;50.074;19.920;2023-02-01T13:09:50;6.50;99.90
19920;DHT22;10122;50.074;19.920;2023-02-01T13:12:22;6.50;99.90
19920;DHT22;10122;50.074;19.920;2023-02-01T13:17:53;6.40;99.90
19920;DHT22;10122;50.074;19.920;2023-02-01T13:20:47;6.40;99.90
19920;DHT22;10122;50.074;19.920;2023-02-01T13:23:26;6.40;99.90
19920;DHT22;10122;50.074;19.920;2023-02-01T13:25:53;6.40;99.90
19920;DHT22;10122;50.074;19.920;2023-02-01T13:28:26;6.30;99.90
19920;DHT22;10122;50.074;19.920;2023-02-01T13:31:14;6.30;99.90
19920;DHT22;10122;50.074;19.920;2023-02-01T13:42:31;6.20;99.90
19920;DHT22;10122;50.074;19.920;2023-02-01T13:45:05;6.30;99.90
19920;DHT22;10122;50.074;19.920;2023-02-01T13:47:42;6.50;99.90
19920;DHT22;10122;50.074;19.920;2023-02-01T13:52:45;6.40;99.90
19920;DHT22;10122;50.074;19.920;2023-02-01T13:57:49;6.20;99.90
19920;DHT22;10122;50.074;19.920;2023-02-01T14:00:35;6.10;99.90
19920;DHT22;10122;50.074;19.920;2023-02-01T14:13:36;5.90;99.90
19920;DHT22;10122;50.074;19.920;2023-02-01T14:21:18;5.90;99.90
19920;DHT22;10122;50.074;19.920;2023-02-01T14:23:46;5.90;99.90
19920;DHT22;10122;50.074;19.920;2023-02-01T14:29:15;5.80;99.90
19920;DHT22;10122;50.074;19.920;2023-02-01T14:31:53;5.90;99.90
19920;DHT22;10122;50.074;19.920;2023-02-01T14:39:49;5.80;99.90
19920;DHT22;10122;50.074;19.920;2023-02-01T14:47:41;5.70;99.90
19920;DHT22;10122;50.074;19.920;2023-02-01T14:50:10;5.70;99.90
19920;DHT22;10122;50.074;19.920;2023-02-01T14:52:44;5.70;99.90
19920;DHT22;10122;50.074;19.920;2023-02-01T14:57:41;5.60;99.90
19920;DHT22;10122;50.074;19.920;2023-02-01T15:00:21;5.60;99.90
19920;DHT22;10122;50.074;19.920;2023-02-01T15:02:49;5.60;99.90
19920;DHT22;10122;50.074;19.920;2023-02-01T15:05:32;5.50;99.90
19920;DHT22;10122;50.074;19.920;2023-02-01T15:10:44;5.40;99.90
19920;DHT22;10122;50.074;19.920;2023-02-01T15:13:25;5.40;99.90
19920;DHT22;10122;50.074;19.920;2023-02-01T15:16:21;5.40;99.90
19920;DHT22;10122;50.074;19.920;2023-02-01T15:18:48;5.40;99.90
19920;DHT22;10122;50.074;19.920;2023-02-01T15:21:19;5.30;99.90
19920;DHT22;10122;50.074;19.920;2023-02-01T15:23:45;5.30;99.90
19920;DHT22;10122;50.074;19.920;2023-02-01T15:26:34;5.20;99.90
19920;DHT22;10122;50.074;19.920;2023-02-01T15:29:00;5.10;99.90
19920;DHT22;10122;50.074;19.920;2023-02-01T15:31:43;5.10;99.90
19920;DHT22;10122;50.074;19.920;2023-02-01T15:34:10;5.00;99.90
19920;DHT22;10122;50.074;19.920;2023-02-01T15:36:36;5.00;99.90
19920;DHT22;10122;50.074;19.920;2023-02-01T15:39:22;5.00;99.90
19920;DHT22;10122;50.074;19.920;2023-02-01T15:42:11;4.90;99.90
19920;DHT22;10122;50.074;19.920;2023-02-01T15:44:44;4.90;99.90
19920;DHT22;10122;50.074;19.920;2023-02-01T15:47:24;4.90;99.90
19920;DHT22;10122;50.074;19.920;2023-02-01T15:49:53;4.90;99.90
19920;DHT22;10122;50.074;19.920;2023-02-01T15:52:37;4.90;99.90
19920;DHT22;10122;50.074;19.920;2023-02-01T15:55:07;4.80;99.90
19920;DHT22;10122;50.074;19.920;2023-02-01T15:57:36;4.70;99.90
19920;DHT22;10122;50.074;19.920;2023-02-01T16:00:07;4.70;99.90
19920;DHT22;10122;50.074;19.920;2023-02-01T16:02:36;4.70;99.90
19920;DHT22;10122;50.074;19.920;2023-02-01T16:05:21;4.70;99.90
19920;DHT22;10122;50.074;19.920;2023-02-01T16:08:15;4.70;99.90
19920;DHT22;10122;50.074;19.920;2023-02-01T16:10:44;4.70;99.90
19920;DHT22;10122;50.074;19.920;2023-02-01T16:13:11;4.70;99.90
19920;DHT22;10122;50.074;19.920;2023-02-01T16:15:38;4.70;99.90
19920;DHT22;10122;50.074;19.920;2023-02-01T16:18:05;4.70;99.90
19920;DHT22;10122;50.074;19.920;2023-02-01T16:20:33;4.70;99.90
19920;DHT22;10122;50.074;19.920;2023-02-01T16:23:01;4.70;99.90
19920;DHT22;10122;50.074;19.920;2023-02-01T16:25:27;4.60;99.90
19920;DHT22;10122;50.074;19.920;2023-02-01T16:27:52;4.60;99.90
19920;DHT22;10122;50.074;19.920;2023-02-01T16:30:18;4.60;99.90
19920;DHT22;10122;50.074;19.920;2023-02-01T16:32:52;4.60;99.90
19920;DHT22;10122;50.074;19.920;2023-02-01T16:35:36;4.60;99.90
19920;DHT22;10122;50.074;19.920;2023-02-01T16:38:04;4.70;99.90
19920;DHT22;10122;50.074;19.920;2023-02-01T16:40:37;4.70;99.90
19920;DHT22;10122;50.074;19.920;2023-02-01T16:43:24;4.60;99.90
19920;DHT22;10122;50.074;19.920;2023-02-01T16:45:53;4.70;99.90
19920;DHT22;10122;50.074;19.920;2023-02-01T16:48:22;4.70;99.90
19920;DHT22;10122;50.074;19.920;2023-02-01T16:51:02;4.70;99.90
19920;DHT22;10122;50.074;19.920;2023-02-01T16:53:30;4.70;99.90
19920;DHT22;10122;50.074;19.920;2023-02-01T16:55:57;4.70;99.90
19920;DHT22;10122;50.074;19.920;2023-02-01T16:58:26;4.70;99.90
19920;DHT22;10122;50.074;19.920;2023-02-01T17:00:53;4.60;99.90
19920;DHT22;10122;50.074;19.920;2023-02-01T17:03:20;4.60;99.90
19920;DHT22;10122;50.074;19.920;2023-02-01T17:05:54;4.60;99.90
19920;DHT22;10122;50.074;19.920;2023-02-01T17:08:40;4.50;99.90
19920;DHT22;10122;50.074;19.920;2023-02-01T17:11:06;4.50;99.90
19920;DHT22;10122;50.074;19.920;2023-02-01T17:13:33;4.60;99.90
19920;DHT22;10122;50.074;19.920;2023-02-01T17:19:09;4.60;99.90
19920;DHT22;10122;50.074;19.920;2023-02-01T17:21:40;4.60;99.90
19920;DHT22;10122;50.074;19.920;2023-02-01T17:24:06;4.60;99.90
19920;DHT22;10122;50.074;19.920;2023-02-01T17:26:32;4.60;99.90
19920;DHT22;10122;50.074;19.920;2023-02-01T17:28:58;4.60;99.90
19920;DHT22;10122;50.074;19.920;2023-02-01T17:31:23;4.70;99.90
19920;DHT22;10122;50.074;19.920;2023-02-01T17:33:49;4.70;99.90
19920;DHT22;10122;50.074;19.920;2023-02-01T17:36:16;4.70;99.90
19920;DHT22;10122;50.074;19.920;2023-02-01T17:38:43;4.70;99.90
19920;DHT22;10122;50.074;19.920;2023-02-01T17:41:12;4.70;99.90
19920;DHT22;10122;50.074;19.920;2023-02-01T17:43:39;4.60;99.90
19920;DHT22;10122;50.074;19.920;2023-02-01T17:46:11;4.60;99.90
19920;DHT22;10122;50.074;19.920;2023-02-01T17:48:37;4.50;99.90
19920;DHT22;10122;50.074;19.920;2023-02-01T17:51:04;4.50;99.90
19920;DHT22;10122;50.074;19.920;2023-02-01T17:53:30;4.50;99.90
19920;DHT22;10122;50.074;19.920;2023-02-01T17:55:58;4.50;99.90
19920;DHT22;10122;50.074;19.920;2023-02-01T17:58:24;4.50;99.90
19920;DHT22;10122;50.074;19.920;2023-02-01T18:00:51;4.50;99.90
19920;DHT22;10122;50.074;19.920;2023-02-01T18:03:23;4.50;99.90
19920;DHT22;10122;50.074;19.920;2023-02-01T18:05:51;4.50;99.90
19920;DHT22;10122;50.074;19.920;2023-02-01T18:08:19;4.60;99.90
19920;DHT22;10122;50.074;19.920;2023-02-01T18:10:54;4.60;99.90
19920;DHT22;10122;50.074;19.920;2023-02-01T18:13:21;4.60;99.90
19920;DHT22;10122;50.074;19.920;2023-02-01T18:15:47;4.60;99.90
19920;DHT22;10122;50.074;19.920;2023-02-01T18:18:12;4.50;99.90
19920;DHT22;10122;50.074;19.920;2023-02-01T18:20:40;4.50;99.90
19920;DHT22;10122;50.074;19.920;2023-02-01T18:23:20;4.50;99.90
19920;DHT22;10122;50.074;19.920;2023-02-01T18:25:46;4.50;99.90